»·PEaware :: N721AP KLAX-KSAN

N721AP :: KLAX-KSAN

FLIGHT INFORMATION

Flight Status: Arrived
Operator: Privately registered:
United States
More flights under this callsign
Pilot: Sally S. (18014)
Aircraft: Unknown
(SF50)
More flights by this aircraft type
Origin: KLAX Los Angeles Intl
United States
Destination: KSAN San Diego Intl-Lindbergh
United States
More flights between these airports :: More routes between these airports
Route: +PACIF
File this flight plan on PilotEdge
Remarks: cat 11
Altitude:
(Current/Filed)
11,500ft
Speed:
(Current/Filed)
110kts
Departed: 10-Feb-18 01:58 PM
Arrived: 10-Feb-18 03:30 PM
Distance/Time
Traveled:
95nm/1:32
Distance/Time
To Go:
Arrived

Flight Plot

Page will automatically refresh every two minutes.

Flight plan parsing failed; only flown route is shown


Map Options




Map Legend


Flown Route
Filed Route
Departure Airport
Arrival Airport
Navaid (VOR, NDB)
Fix

Horizontal Profiles

Position Reports

Time Latitude Longitude Heading Altitude Ground
Speed
10-Feb-18 13:41 33.933264 -118.397426 264 129ft 0kts
10-Feb-18 13:42 33.933264 -118.397426 264 129ft 0kts
10-Feb-18 13:43 33.933264 -118.397426 264 129ft 0kts
10-Feb-18 13:44 33.933264 -118.397426 264 129ft 0kts
10-Feb-18 13:45 33.933264 -118.397426 264 129ft 0kts
10-Feb-18 13:46 33.933264 -118.397426 264 129ft 0kts
10-Feb-18 13:47 33.933264 -118.397426 264 129ft 0kts
10-Feb-18 13:48 33.933264 -118.397426 264 129ft 0kts
10-Feb-18 13:49 33.933264 -118.397426 264 129ft 0kts
10-Feb-18 13:50 33.933264 -118.397426 264 129ft 0kts
10-Feb-18 13:51 33.933264 -118.397426 264 129ft 0kts
10-Feb-18 13:52 33.933264 -118.397426 264 129ft 0kts
10-Feb-18 13:53 33.933264 -118.397426 264 129ft 0kts
10-Feb-18 13:54 33.933264 -118.397426 264 129ft 0kts
10-Feb-18 13:55 33.933264 -118.397426 264 129ft 0kts
10-Feb-18 13:56 33.933264 -118.397426 264 129ft 0kts
10-Feb-18 13:57 33.933264 -118.397426 264 129ft 0kts
10-Feb-18 13:58 33.933264 -118.397426 264 129ft 0kts
10-Feb-18 13:59 33.933264 -118.397426 264 129ft 0kts
10-Feb-18 14:00 33.934632 -118.397093 84 129ft 12kts
10-Feb-18 14:01 33.935490 -118.389020 83 129ft 34kts
10-Feb-18 14:02 33.936438 -118.382826 4 129ft 0kts
10-Feb-18 14:03 33.936438 -118.382826 4 129ft 0kts
10-Feb-18 14:04 33.936503 -118.382819 6 129ft 9kts
10-Feb-18 14:05 33.935425 -118.411969 267 1168ft 150kts
10-Feb-18 14:06 33.933210 -118.464988 267 3003ft 181kts
10-Feb-18 14:07 33.930712 -118.524761 267 2997ft 172kts
10-Feb-18 14:08 33.922031 -118.578277 210 2994ft 165kts
10-Feb-18 14:09 33.876464 -118.571176 172 4898ft 169kts
10-Feb-18 14:10 33.822704 -118.561382 172 7064ft 210kts
10-Feb-18 14:11 33.764442 -118.550750 172 9483ft 217kts
10-Feb-18 14:12 33.723889 -118.500495 123 11486ft 233kts
10-Feb-18 14:13 33.682751 -118.428056 125 11525ft 269kts
10-Feb-18 14:14 33.638775 -118.352048 125 11528ft 283kts
10-Feb-18 14:15 33.593391 -118.273838 125 11527ft 287kts
10-Feb-18 14:16 33.547561 -118.195028 125 11526ft 289kts
10-Feb-18 14:17 33.501515 -118.116018 125 11526ft 289kts
10-Feb-18 14:18 33.455550 -118.037315 125 11526ft 289kts
10-Feb-18 14:19 33.410216 -117.959859 125 10425ft 283kts
10-Feb-18 14:20 33.365674 -117.883917 125 8630ft 275kts
10-Feb-18 14:21 33.322415 -117.810313 125 6591ft 268kts
10-Feb-18 14:22 33.279520 -117.742665 137 5538ft 224kts
10-Feb-18 14:23 33.239542 -117.699840 138 5534ft 169kts
10-Feb-18 14:24 33.206887 -117.665638 138 5540ft 145kts
10-Feb-18 14:25 33.177877 -117.635359 138 5547ft 137kts
10-Feb-18 14:26 33.143284 -117.599353 139 5560ft 198kts
10-Feb-18 14:27 33.098931 -117.550749 136 5549ft 229kts
10-Feb-18 14:28 33.052098 -117.496549 135 5546ft 238kts
10-Feb-18 14:29 33.004087 -117.440987 135 5544ft 243kts
10-Feb-18 14:30 32.966265 -117.397278 135 5545ft 244kts
10-Feb-18 14:31 32.966265 -117.397278 135 5545ft 244kts
10-Feb-18 14:33 33.933264 -118.397419 264 129ft 0kts
10-Feb-18 14:34 33.933264 -118.397419 264 129ft 0kts
10-Feb-18 14:35 33.933264 -118.397419 264 129ft 0kts
10-Feb-18 14:36 33.933264 -118.397419 264 129ft 0kts
10-Feb-18 14:37 33.933264 -118.397419 264 129ft 0kts
10-Feb-18 14:38 33.933264 -118.397419 264 129ft 0kts
10-Feb-18 14:39 33.933264 -118.397419 264 129ft 0kts
10-Feb-18 14:39 33.933264 -118.397419 264 129ft 0kts
10-Feb-18 14:41 33.933264 -118.397419 264 129ft 0kts
10-Feb-18 14:42 33.933264 -118.397419 264 129ft 0kts
10-Feb-18 14:42 33.933264 -118.397419 264 129ft 0kts
10-Feb-18 14:44 33.933264 -118.397419 264 129ft 0kts
10-Feb-18 14:45 33.933264 -118.397419 264 129ft 0kts
10-Feb-18 14:45 33.933264 -118.397419 264 129ft 0kts
10-Feb-18 14:46 33.934173 -118.398145 358 129ft 16kts
10-Feb-18 14:47 33.935197 -118.391377 84 129ft 36kts
10-Feb-18 14:48 33.936452 -118.382880 18 129ft 0kts
10-Feb-18 14:49 33.936452 -118.382880 18 129ft 0kts
10-Feb-18 14:50 33.935255 -118.405300 262 363ft 181kts
10-Feb-18 14:51 33.931125 -118.469415 266 3016ft 221kts
10-Feb-18 14:52 33.927210 -118.541885 266 2998ft 214kts
10-Feb-18 14:53 33.906263 -118.600354 178 3148ft 226kts
10-Feb-18 14:54 33.845908 -118.589826 172 6369ft 232kts
10-Feb-18 14:55 33.778918 -118.577770 172 8741ft 250kts
10-Feb-18 14:56 33.719780 -118.543011 129 10935ft 258kts
10-Feb-18 14:57 33.678298 -118.468323 123 11492ft 267kts
10-Feb-18 14:58 33.637277 -118.392466 123 11500ft 274kts
10-Feb-18 14:59 33.595736 -118.315717 123 11553ft 274kts
10-Feb-18 15:00 33.553987 -118.238746 123 11554ft 276kts
10-Feb-18 15:01 33.510563 -118.158880 123 11558ft 301kts
10-Feb-18 15:02 33.463924 -118.073279 123 11554ft 310kts
10-Feb-18 15:03 33.416515 -117.986462 123 11554ft 312kts
10-Feb-18 15:04 33.370569 -117.902486 123 11546ft 277kts
10-Feb-18 15:06 33.333682 -117.835171 123 11542ft 206kts
10-Feb-18 15:07 33.305541 -117.783912 123 10899ft 175kts
10-Feb-18 15:08 33.275878 -117.738628 138 9722ft 173kts
10-Feb-18 15:09 33.239966 -117.701459 139 8588ft 170kts
10-Feb-18 15:10 33.204856 -117.664714 131 7570ft 161kts
10-Feb-18 15:11 33.189198 -117.622992 109 7554ft 130kts
10-Feb-18 15:12 33.175471 -117.576005 109 7554ft 162kts
10-Feb-18 15:13 33.160226 -117.523792 109 7556ft 170kts
10-Feb-18 15:14 33.144070 -117.468588 109 7559ft 185kts
10-Feb-18 15:15 33.117679 -117.416671 153 7565ft 192kts
10-Feb-18 15:16 33.069255 -117.388912 154 7555ft 194kts
10-Feb-18 15:17 33.020535 -117.361080 154 7555ft 194kts
10-Feb-18 15:18 32.972026 -117.333437 154 7554ft 194kts
10-Feb-18 15:19 32.924167 -117.306189 154 7547ft 179kts
10-Feb-18 15:20 32.882175 -117.282347 155 7550ft 158kts
10-Feb-18 15:21 32.845183 -117.261378 154 7550ft 138kts
10-Feb-18 15:22 32.815667 -117.237652 99 7563ft 136kts
10-Feb-18 15:23 32.809592 -117.187818 98 7547ft 163kts
10-Feb-18 15:24 32.802878 -117.135688 101 7536ft 158kts
10-Feb-18 15:25 32.794462 -117.084643 101 7535ft 154kts
10-Feb-18 15:26 32.786245 -117.034781 101 6617ft 156kts
10-Feb-18 15:27 32.788180 -116.985488 93 5656ft 154kts
10-Feb-18 15:28 32.780722 -116.939252 101 5545ft 149kts
10-Feb-18 15:29 32.755981 -116.910500 190 5352ft 150kts
10-Feb-18 15:30 32.715338 -116.922062 223 4772ft 151kts
10-Feb-18 15:31 32.713152 -116.969664 276 4053ft 147kts
10-Feb-18 15:32 32.717583 -117.017291 276 3229ft 129kts
10-Feb-18 15:33 32.720997 -117.054108 276 3223ft 98kts
10-Feb-18 15:34 32.721042 -117.093205 267 2274ft 132kts
10-Feb-18 15:35 32.722324 -117.128658 276 1686ft 93kts
10-Feb-18 15:36 32.726536 -117.159719 283 574ft 90kts
10-Feb-18 15:37 32.732501 -117.184201 335 21ft 12kts

Navigation Log

Ident Type
Flight plan parsing failed, navigation log unavailable